aviador You're here:

ZYTL Decoded Metar

DALIAN in CHINA
Report Time2017-08-16 14:30:00
UTC Time2017-08-16 15:03:15
Flight Rules vfr VFR
Wind090° at 6 kt
W.Decomp.*RWY 10: 6.0 kt HW 0.2 kt LCW
W.Rank090° ranks 19
Current wind is below 090° avg. (6.5)
Visibility9999 m
Phenomena:N/A
Clouds:Few 033 Hf
Expected CloudBase > 1,200 ft AGL from Temp-Dew spread
CeilingNone
Temp24°C (ISA +10)
Dew Point21°C (83% RH)
QNH1007 hPa
Density Alt1,969 ft
Elevation318 ft
Report Wrong Elevation
Raw Report
METAR ZYTL 161430Z 09003MPS 9999 FEW033 24/21 Q1007 NOSIG=

Extra information for ZYTL:More info

Metar Taf Metar & Taf Last 4 Metars F.Rules Stats Wind Profile Meteogram Temp Stats Airport Information Weather charts Add Link Nearby VenuesMetar ALERT Operation Metar Decoded Social comments